sensor_id;sensor_type;location;lat;lon;timestamp;pressure;altitude;pressure_sealevel;temperature;humidity
75298;BME280;63896;45.990;18.688;2024-03-17T00:01:37;101128.16;;;9.67;100.00
75298;BME280;63896;45.990;18.688;2024-03-17T00:04:39;101126.78;;;9.71;100.00
75298;BME280;63896;45.990;18.688;2024-03-17T00:07:41;101134.16;;;9.75;100.00
75298;BME280;63896;45.990;18.688;2024-03-17T00:10:43;101136.00;;;9.75;100.00
75298;BME280;63896;45.990;18.688;2024-03-17T00:13:45;101126.22;;;9.75;100.00
75298;BME280;63896;45.990;18.688;2024-03-17T00:16:47;101141.16;;;9.83;100.00
75298;BME280;63896;45.990;18.688;2024-03-17T00:19:49;101130.94;;;9.80;100.00
75298;BME280;63896;45.990;18.688;2024-03-17T00:22:51;101134.22;;;9.82;100.00
75298;BME280;63896;45.990;18.688;2024-03-17T00:25:54;101122.34;;;9.99;100.00
75298;BME280;63896;45.990;18.688;2024-03-17T00:28:56;101121.25;;;9.93;100.00
75298;BME280;63896;45.990;18.688;2024-03-17T00:31:58;101123.22;;;9.85;100.00
75298;BME280;63896;45.990;18.688;2024-03-17T00:35:00;101128.53;;;9.85;100.00
75298;BME280;63896;45.990;18.688;2024-03-17T00:38:02;101127.34;;;9.87;100.00
75298;BME280;63896;45.990;18.688;2024-03-17T00:41:11;101122.34;;;9.78;100.00
75298;BME280;63896;45.990;18.688;2024-03-17T00:44:13;101127.22;;;9.74;100.00
75298;BME280;63896;45.990;18.688;2024-03-17T00:47:15;101117.88;;;9.78;100.00
75298;BME280;63896;45.990;18.688;2024-03-17T00:50:16;101121.88;;;9.68;100.00
75298;BME280;63896;45.990;18.688;2024-03-17T00:53:18;101128.50;;;9.57;100.00
75298;BME280;63896;45.990;18.688;2024-03-17T00:56:20;101133.91;;;9.49;100.00
75298;BME280;63896;45.990;18.688;2024-03-17T00:59:22;101132.00;;;9.43;100.00
75298;BME280;63896;45.990;18.688;2024-03-17T01:02:23;101136.03;;;9.39;100.00
75298;BME280;63896;45.990;18.688;2024-03-17T01:05:25;101134.47;;;9.44;100.00
75298;BME280;63896;45.990;18.688;2024-03-17T01:08:27;101144.25;;;9.44;100.00
75298;BME280;63896;45.990;18.688;2024-03-17T01:11:29;101139.97;;;9.43;100.00
75298;BME280;63896;45.990;18.688;2024-03-17T01:14:30;101135.47;;;9.43;100.00
75298;BME280;63896;45.990;18.688;2024-03-17T01:17:32;101133.47;;;9.45;100.00
75298;BME280;63896;45.990;18.688;2024-03-17T01:20:36;101141.22;;;9.47;100.00
75298;BME280;63896;45.990;18.688;2024-03-17T01:23:38;101143.47;;;9.50;100.00
75298;BME280;63896;45.990;18.688;2024-03-17T01:26:40;101142.47;;;9.51;100.00
75298;BME280;63896;45.990;18.688;2024-03-17T01:29:42;101137.72;;;9.61;100.00
75298;BME280;63896;45.990;18.688;2024-03-17T01:32:45;101141.97;;;9.62;100.00
75298;BME280;63896;45.990;18.688;2024-03-17T01:35:47;101142.81;;;9.63;100.00
75298;BME280;63896;45.990;18.688;2024-03-17T01:38:49;101152.78;;;9.61;100.00
75298;BME280;63896;45.990;18.688;2024-03-17T01:41:51;101137.19;;;9.72;100.00
75298;BME280;63896;45.990;18.688;2024-03-17T01:44:54;101138.81;;;9.73;100.00
75298;BME280;63896;45.990;18.688;2024-03-17T01:47:57;101145.47;;;9.84;100.00
75298;BME280;63896;45.990;18.688;2024-03-17T01:51:02;101136.94;;;9.88;100.00
75298;BME280;63896;45.990;18.688;2024-03-17T01:54:05;101143.03;;;9.89;100.00
75298;BME280;63896;45.990;18.688;2024-03-17T01:57:07;101141.03;;;9.91;100.00
75298;BME280;63896;45.990;18.688;2024-03-17T02:00:09;101141.13;;;10.04;100.00
75298;BME280;63896;45.990;18.688;2024-03-17T02:03:13;101147.16;;;9.91;100.00
75298;BME280;63896;45.990;18.688;2024-03-17T02:06:15;101147.03;;;9.99;100.00
75298;BME280;63896;45.990;18.688;2024-03-17T02:09:17;101150.03;;;9.96;100.00
75298;BME280;63896;45.990;18.688;2024-03-17T02:12:20;101154.84;;;9.86;100.00
75298;BME280;63896;45.990;18.688;2024-03-17T02:15:22;101156.19;;;9.76;100.00
75298;BME280;63896;45.990;18.688;2024-03-17T02:18:23;101152.03;;;9.88;100.00
75298;BME280;63896;45.990;18.688;2024-03-17T02:21:26;101150.94;;;9.82;100.00
75298;BME280;63896;45.990;18.688;2024-03-17T02:24:31;101147.41;;;9.75;100.00
75298;BME280;63896;45.990;18.688;2024-03-17T02:27:34;101154.09;;;9.71;100.00
75298;BME280;63896;45.990;18.688;2024-03-17T02:30:36;101157.38;;;9.73;100.00
75298;BME280;63896;45.990;18.688;2024-03-17T02:33:39;101150.69;;;9.77;100.00
75298;BME280;63896;45.990;18.688;2024-03-17T02:36:40;101146.78;;;9.73;100.00
75298;BME280;63896;45.990;18.688;2024-03-17T02:39:43;101153.50;;;9.69;100.00
75298;BME280;63896;45.990;18.688;2024-03-17T02:42:45;101149.06;;;9.76;100.00
75298;BME280;63896;45.990;18.688;2024-03-17T02:45:46;101149.59;;;9.93;100.00
75298;BME280;63896;45.990;18.688;2024-03-17T02:48:53;101148.84;;;9.99;100.00
75298;BME280;63896;45.990;18.688;2024-03-17T02:51:55;101146.34;;;9.91;100.00
75298;BME280;63896;45.990;18.688;2024-03-17T02:54:57;101151.81;;;9.89;100.00
75298;BME280;63896;45.990;18.688;2024-03-17T02:57:59;101145.69;;;9.89;100.00
75298;BME280;63896;45.990;18.688;2024-03-17T03:01:00;101140.56;;;9.81;100.00
75298;BME280;63896;45.990;18.688;2024-03-17T03:04:02;101141.41;;;9.67;100.00
75298;BME280;63896;45.990;18.688;2024-03-17T03:07:04;101143.47;;;9.50;100.00
75298;BME280;63896;45.990;18.688;2024-03-17T03:10:06;101143.53;;;9.35;100.00
75298;BME280;63896;45.990;18.688;2024-03-17T03:13:08;101147.44;;;9.18;100.00
75298;BME280;63896;45.990;18.688;2024-03-17T03:16:14;101138.22;;;9.14;100.00
75298;BME280;63896;45.990;18.688;2024-03-17T03:19:16;101145.19;;;9.00;100.00
75298;BME280;63896;45.990;18.688;2024-03-17T03:22:18;101147.34;;;9.26;100.00
75298;BME280;63896;45.990;18.688;2024-03-17T03:25:23;101142.47;;;9.51;100.00
75298;BME280;63896;45.990;18.688;2024-03-17T03:28:25;101142.56;;;9.57;100.00
75298;BME280;63896;45.990;18.688;2024-03-17T03:31:27;101139.84;;;9.72;100.00
75298;BME280;63896;45.990;18.688;2024-03-17T03:34:29;101139.91;;;9.79;100.00
75298;BME280;63896;45.990;18.688;2024-03-17T03:37:31;101146.47;;;9.83;100.00
75298;BME280;63896;45.990;18.688;2024-03-17T03:40:33;101150.81;;;9.90;100.00
75298;BME280;63896;45.990;18.688;2024-03-17T03:43:35;101148.16;;;9.90;100.00
75298;BME280;63896;45.990;18.688;2024-03-17T03:46:37;101154.41;;;9.83;100.00
75298;BME280;63896;45.990;18.688;2024-03-17T03:49:39;101148.19;;;9.69;100.00
75298;BME280;63896;45.990;18.688;2024-03-17T03:52:41;101145.84;;;9.60;100.00
75298;BME280;63896;45.990;18.688;2024-03-17T03:55:46;101152.25;;;9.50;100.00
75298;BME280;63896;45.990;18.688;2024-03-17T03:58:49;101156.50;;;9.45;100.00
75298;BME280;63896;45.990;18.688;2024-03-17T04:01:51;101158.00;;;9.33;100.00
75298;BME280;63896;45.990;18.688;2024-03-17T04:04:53;101159.25;;;9.37;100.00
75298;BME280;63896;45.990;18.688;2024-03-17T04:07:55;101168.84;;;9.38;100.00
75298;BME280;63896;45.990;18.688;2024-03-17T04:10:57;101172.94;;;9.40;100.00
75298;BME280;63896;45.990;18.688;2024-03-17T04:13:59;101186.81;;;9.42;100.00
75298;BME280;63896;45.990;18.688;2024-03-17T04:17:02;101194.91;;;9.55;100.00
75298;BME280;63896;45.990;18.688;2024-03-17T04:20:05;101196.94;;;9.53;100.00
75298;BME280;63896;45.990;18.688;2024-03-17T04:23:09;101202.69;;;9.57;100.00
75298;BME280;63896;45.990;18.688;2024-03-17T04:26:11;101202.69;;;9.57;100.00
75298;BME280;63896;45.990;18.688;2024-03-17T04:29:13;101206.47;;;9.69;100.00
75298;BME280;63896;45.990;18.688;2024-03-17T04:32:14;101212.84;;;9.75;100.00
75298;BME280;63896;45.990;18.688;2024-03-17T04:35:16;101208.53;;;9.74;100.00
75298;BME280;63896;45.990;18.688;2024-03-17T04:38:18;101204.72;;;9.76;100.00
75298;BME280;63896;45.990;18.688;2024-03-17T04:41:21;101205.72;;;9.75;100.00
75298;BME280;63896;45.990;18.688;2024-03-17T04:44:23;101208.03;;;9.85;100.00
75298;BME280;63896;45.990;18.688;2024-03-17T04:47:25;101211.59;;;9.92;100.00
75298;BME280;63896;45.990;18.688;2024-03-17T04:50:26;101214.91;;;10.00;100.00
75298;BME280;63896;45.990;18.688;2024-03-17T04:53:33;101218.25;;;10.09;100.00
75298;BME280;63896;45.990;18.688;2024-03-17T04:56:34;101219.59;;;10.20;100.00
75298;BME280;63896;45.990;18.688;2024-03-17T04:59:36;101227.81;;;10.25;100.00
75298;BME280;63896;45.990;18.688;2024-03-17T05:02:40;101228.91;;;10.30;100.00
75298;BME280;63896;45.990;18.688;2024-03-17T05:05:42;101225.06;;;10.39;100.00
75298;BME280;63896;45.990;18.688;2024-03-17T05:08:43;101232.84;;;10.41;100.00
75298;BME280;63896;45.990;18.688;2024-03-17T05:11:45;101233.72;;;10.48;100.00
75298;BME280;63896;45.990;18.688;2024-03-17T05:14:48;101241.28;;;10.51;100.00
75298;BME280;63896;45.990;18.688;2024-03-17T05:17:50;101235.97;;;10.51;100.00
75298;BME280;63896;45.990;18.688;2024-03-17T05:21:07;101243.75;;;10.52;100.00
75298;BME280;63896;45.990;18.688;2024-03-17T05:24:10;101255.06;;;10.61;100.00
75298;BME280;63896;45.990;18.688;2024-03-17T05:27:13;101257.50;;;10.63;100.00
75298;BME280;63896;45.990;18.688;2024-03-17T05:30:15;101255.00;;;10.55;100.00
75298;BME280;63896;45.990;18.688;2024-03-17T05:33:17;101258.03;;;10.51;100.00
75298;BME280;63896;45.990;18.688;2024-03-17T05:36:19;101269.59;;;10.65;100.00
75298;BME280;63896;45.990;18.688;2024-03-17T05:39:24;101269.19;;;10.68;100.00
75298;BME280;63896;45.990;18.688;2024-03-17T05:42:25;101267.59;;;10.74;100.00
75298;BME280;63896;45.990;18.688;2024-03-17T05:45:27;101263.09;;;10.74;100.00
75298;BME280;63896;45.990;18.688;2024-03-17T05:48:30;101270.53;;;10.85;100.00
75298;BME280;63896;45.990;18.688;2024-03-17T05:51:32;101276.22;;;10.82;100.00
75298;BME280;63896;45.990;18.688;2024-03-17T05:54:33;101280.66;;;10.75;100.00
75298;BME280;63896;45.990;18.688;2024-03-17T05:57:35;101276.28;;;10.61;100.00
75298;BME280;63896;45.990;18.688;2024-03-17T06:00:40;101274.69;;;10.67;100.00
75298;BME280;63896;45.990;18.688;2024-03-17T06:03:41;101274.25;;;10.63;100.00
75298;BME280;63896;45.990;18.688;2024-03-17T06:06:44;101278.66;;;10.77;100.00
75298;BME280;63896;45.990;18.688;2024-03-17T06:09:46;101287.09;;;10.87;100.00
75298;BME280;63896;45.990;18.688;2024-03-17T06:12:49;101286.31;;;10.93;100.00
75298;BME280;63896;45.990;18.688;2024-03-17T06:15:50;101288.97;;;11.28;100.00
75298;BME280;63896;45.990;18.688;2024-03-17T06:18:52;101296.56;;;11.31;100.00
75298;BME280;63896;45.990;18.688;2024-03-17T06:21:54;101291.25;;;11.31;100.00
75298;BME280;63896;45.990;18.688;2024-03-17T06:24:56;101295.16;;;11.41;100.00
75298;BME280;63896;45.990;18.688;2024-03-17T06:27:57;101291.09;;;11.39;100.00
75298;BME280;63896;45.990;18.688;2024-03-17T06:30:59;101287.09;;;11.22;100.00
75298;BME280;63896;45.990;18.688;2024-03-17T06:34:01;101286.47;;;11.61;100.00
75298;BME280;63896;45.990;18.688;2024-03-17T06:37:03;101296.50;;;11.65;100.00
75298;BME280;63896;45.990;18.688;2024-03-17T06:40:05;101298.91;;;11.54;100.00
75298;BME280;63896;45.990;18.688;2024-03-17T06:43:07;101296.44;;;11.93;100.00
75298;BME280;63896;45.990;18.688;2024-03-17T06:46:09;101296.69;;;13.10;100.00
75298;BME280;63896;45.990;18.688;2024-03-17T06:49:11;101309.88;;;13.62;90.28
75298;BME280;63896;45.990;18.688;2024-03-17T06:52:13;101309.34;;;15.40;77.86
75298;BME280;63896;45.990;18.688;2024-03-17T06:55:15;101312.41;;;15.62;70.38
75298;BME280;63896;45.990;18.688;2024-03-17T06:58:16;101306.19;;;17.55;63.50
75298;BME280;63896;45.990;18.688;2024-03-17T07:01:21;101309.41;;;16.83;63.71
75298;BME280;63896;45.990;18.688;2024-03-17T07:04:23;101316.59;;;17.92;57.70
75298;BME280;63896;45.990;18.688;2024-03-17T07:07:27;101336.25;;;18.09;57.23
75298;BME280;63896;45.990;18.688;2024-03-17T07:10:29;101335.88;;;16.49;57.55
75298;BME280;63896;45.990;18.688;2024-03-17T07:13:33;101344.81;;;18.23;52.43
75298;BME280;63896;45.990;18.688;2024-03-17T07:16:35;101348.88;;;18.08;51.22
75298;BME280;63896;45.990;18.688;2024-03-17T07:19:37;101368.13;;;17.77;52.70
75298;BME280;63896;45.990;18.688;2024-03-17T07:22:38;101366.44;;;17.13;54.04
75298;BME280;63896;45.990;18.688;2024-03-17T07:25:40;101377.94;;;18.68;49.42
75298;BME280;63896;45.990;18.688;2024-03-17T07:28:42;101380.38;;;18.86;46.80
75298;BME280;63896;45.990;18.688;2024-03-17T07:31:46;101380.69;;;18.57;46.65
75298;BME280;63896;45.990;18.688;2024-03-17T07:34:47;101381.84;;;20.36;43.77
75298;BME280;63896;45.990;18.688;2024-03-17T07:37:50;101379.22;;;19.92;44.51
75298;BME280;63896;45.990;18.688;2024-03-17T07:41:00;101385.09;;;19.13;43.91
75298;BME280;63896;45.990;18.688;2024-03-17T07:44:02;101386.16;;;18.78;46.30
75298;BME280;63896;45.990;18.688;2024-03-17T07:47:04;101389.88;;;20.09;42.25
75298;BME280;63896;45.990;18.688;2024-03-17T07:50:06;101387.00;;;20.37;41.75
75298;BME280;63896;45.990;18.688;2024-03-17T07:53:09;101384.78;;;21.25;41.02
75298;BME280;63896;45.990;18.688;2024-03-17T07:56:12;101383.69;;;20.57;40.07
75298;BME280;63896;45.990;18.688;2024-03-17T07:59:15;101375.63;;;20.62;39.54
75298;BME280;63896;45.990;18.688;2024-03-17T08:02:19;101374.31;;;21.02;40.33
75298;BME280;63896;45.990;18.688;2024-03-17T08:05:21;101374.53;;;21.27;38.77
75298;BME280;63896;45.990;18.688;2024-03-17T08:08:23;101369.97;;;21.90;36.79
75298;BME280;63896;45.990;18.688;2024-03-17T08:11:25;101378.72;;;22.17;36.25
75298;BME280;63896;45.990;18.688;2024-03-17T08:14:27;101383.69;;;23.16;34.77
75298;BME280;63896;45.990;18.688;2024-03-17T08:17:29;101377.06;;;21.07;36.69
75298;BME280;63896;45.990;18.688;2024-03-17T08:20:30;101382.19;;;21.03;37.18
75298;BME280;63896;45.990;18.688;2024-03-17T08:23:33;101381.72;;;21.53;36.59
75298;BME280;63896;45.990;18.688;2024-03-17T08:26:39;101381.66;;;21.43;37.45
75298;BME280;63896;45.990;18.688;2024-03-17T08:29:46;101377.47;;;22.75;34.12
75298;BME280;63896;45.990;18.688;2024-03-17T08:32:49;101382.09;;;22.74;33.77
75298;BME280;63896;45.990;18.688;2024-03-17T08:35:57;101385.88;;;22.89;33.13
75298;BME280;63896;45.990;18.688;2024-03-17T08:39:00;101378.81;;;23.03;32.83
75298;BME280;63896;45.990;18.688;2024-03-17T08:42:03;101381.44;;;23.58;31.98
75298;BME280;63896;45.990;18.688;2024-03-17T08:45:05;101382.03;;;22.59;34.27
75298;BME280;63896;45.990;18.688;2024-03-17T08:48:07;101371.81;;;22.82;32.61
75298;BME280;63896;45.990;18.688;2024-03-17T08:51:09;101377.22;;;22.92;33.24
75298;BME280;63896;45.990;18.688;2024-03-17T08:54:12;101388.25;;;23.25;32.81
75298;BME280;63896;45.990;18.688;2024-03-17T08:57:14;101382.38;;;24.76;31.53
75298;BME280;63896;45.990;18.688;2024-03-17T09:00:16;101373.84;;;23.60;33.48
75298;BME280;63896;45.990;18.688;2024-03-17T09:03:18;101377.16;;;24.06;31.91
75298;BME280;63896;45.990;18.688;2024-03-17T09:06:20;101360.88;;;24.55;30.99
75298;BME280;63896;45.990;18.688;2024-03-17T09:09:23;101360.69;;;24.76;31.76
75298;BME280;63896;45.990;18.688;2024-03-17T09:12:26;101371.06;;;25.55;29.60
75298;BME280;63896;45.990;18.688;2024-03-17T09:15:29;101365.19;;;26.09;29.67
75298;BME280;63896;45.990;18.688;2024-03-17T09:18:32;101362.44;;;25.48;29.80
75298;BME280;63896;45.990;18.688;2024-03-17T09:21:34;101367.91;;;25.90;29.55
75298;BME280;63896;45.990;18.688;2024-03-17T09:24:36;101360.66;;;26.42;28.02
75298;BME280;63896;45.990;18.688;2024-03-17T09:27:38;101362.06;;;26.21;27.69
75298;BME280;63896;45.990;18.688;2024-03-17T09:30:46;101353.53;;;26.27;27.66
75298;BME280;63896;45.990;18.688;2024-03-17T09:33:48;101348.81;;;26.14;27.39
75298;BME280;63896;45.990;18.688;2024-03-17T09:36:50;101352.75;;;26.59;27.75
75298;BME280;63896;45.990;18.688;2024-03-17T09:39:52;101349.66;;;27.12;26.84
75298;BME280;63896;45.990;18.688;2024-03-17T09:42:54;101349.22;;;25.84;29.15
75298;BME280;63896;45.990;18.688;2024-03-17T09:45:56;101339.75;;;26.56;27.78
75298;BME280;63896;45.990;18.688;2024-03-17T09:49:01;101342.81;;;24.70;28.55
75298;BME280;63896;45.990;18.688;2024-03-17T09:52:03;101344.91;;;24.05;29.66
75298;BME280;63896;45.990;18.688;2024-03-17T09:55:17;101344.44;;;22.38;31.96
75298;BME280;63896;45.990;18.688;2024-03-17T09:58:19;101346.16;;;24.61;29.23
75298;BME280;63896;45.990;18.688;2024-03-17T10:01:21;101343.06;;;25.97;28.02
75298;BME280;63896;45.990;18.688;2024-03-17T10:04:32;101338.66;;;25.35;28.56
75298;BME280;63896;45.990;18.688;2024-03-17T10:07:38;101335.25;;;25.48;28.42
75298;BME280;63896;45.990;18.688;2024-03-17T10:10:40;101340.56;;;26.57;28.02
75298;BME280;63896;45.990;18.688;2024-03-17T10:13:43;101338.28;;;27.37;26.00
75298;BME280;63896;45.990;18.688;2024-03-17T10:16:45;101328.41;;;27.68;26.51
75298;BME280;63896;45.990;18.688;2024-03-17T10:19:47;101330.94;;;28.01;25.05
75298;BME280;63896;45.990;18.688;2024-03-17T10:23:07;101335.44;;;26.36;26.02
75298;BME280;63896;45.990;18.688;2024-03-17T10:26:14;101329.78;;;25.53;27.87
75298;BME280;63896;45.990;18.688;2024-03-17T10:29:34;101327.22;;;25.38;27.89
75298;BME280;63896;45.990;18.688;2024-03-17T10:32:39;101329.28;;;25.70;27.21
75298;BME280;63896;45.990;18.688;2024-03-17T10:35:42;101320.72;;;26.00;27.43
75298;BME280;63896;45.990;18.688;2024-03-17T10:38:51;101325.63;;;27.00;25.40
75298;BME280;63896;45.990;18.688;2024-03-17T10:42:01;101319.31;;;27.32;25.48
75298;BME280;63896;45.990;18.688;2024-03-17T10:45:06;101319.78;;;25.91;25.47
75298;BME280;63896;45.990;18.688;2024-03-17T10:48:15;101322.13;;;25.97;25.33
75298;BME280;63896;45.990;18.688;2024-03-17T10:51:20;101319.28;;;26.91;24.52
75298;BME280;63896;45.990;18.688;2024-03-17T10:54:26;101323.88;;;26.07;25.11
75298;BME280;63896;45.990;18.688;2024-03-17T11:00:42;101326.38;;;25.85;25.41
75298;BME280;63896;45.990;18.688;2024-03-17T11:03:46;101321.69;;;26.09;25.16
75298;BME280;63896;45.990;18.688;2024-03-17T11:06:48;101317.31;;;26.78;24.72
75298;BME280;63896;45.990;18.688;2024-03-17T11:09:51;101318.47;;;26.58;23.65
75298;BME280;63896;45.990;18.688;2024-03-17T11:15:58;101314.34;;;26.93;23.98
75298;BME280;63896;45.990;18.688;2024-03-17T11:19:06;101300.97;;;25.94;24.51
75298;BME280;63896;45.990;18.688;2024-03-17T11:22:43;101305.78;;;27.27;23.63
75298;BME280;63896;45.990;18.688;2024-03-17T11:25:52;101307.78;;;25.49;25.46
75298;BME280;63896;45.990;18.688;2024-03-17T11:28:54;101300.44;;;26.94;23.76
75298;BME280;63896;45.990;18.688;2024-03-17T11:31:57;101302.59;;;26.79;23.89
75298;BME280;63896;45.990;18.688;2024-03-17T11:35:13;101295.88;;;26.90;23.88
75298;BME280;63896;45.990;18.688;2024-03-17T11:41:55;101297.63;;;23.72;27.02
75298;BME280;63896;45.990;18.688;2024-03-17T11:44:59;101293.19;;;25.22;25.33
75298;BME280;63896;45.990;18.688;2024-03-17T11:48:01;101274.31;;;26.61;24.15
75298;BME280;63896;45.990;18.688;2024-03-17T11:51:09;101271.41;;;26.71;23.40
75298;BME280;63896;45.990;18.688;2024-03-17T11:54:20;101273.06;;;26.86;23.57
75298;BME280;63896;45.990;18.688;2024-03-17T11:57:26;101260.94;;;26.78;23.79
75298;BME280;63896;45.990;18.688;2024-03-17T12:00:28;101262.16;;;25.46;25.26
75298;BME280;63896;45.990;18.688;2024-03-17T12:03:30;101242.53;;;23.87;27.10
75298;BME280;63896;45.990;18.688;2024-03-17T12:06:32;101239.69;;;26.94;24.20
75298;BME280;63896;45.990;18.688;2024-03-17T12:09:34;101241.69;;;27.16;24.03
75298;BME280;63896;45.990;18.688;2024-03-17T12:12:36;101237.28;;;25.16;25.69
75298;BME280;63896;45.990;18.688;2024-03-17T12:15:37;101230.97;;;25.81;24.98
75298;BME280;63896;45.990;18.688;2024-03-17T12:18:39;101225.81;;;27.81;23.32
75298;BME280;63896;45.990;18.688;2024-03-17T12:21:49;101222.53;;;26.93;23.99
75298;BME280;63896;45.990;18.688;2024-03-17T12:24:53;101215.34;;;27.74;23.75
75298;BME280;63896;45.990;18.688;2024-03-17T12:27:55;101219.25;;;28.49;22.69
75298;BME280;63896;45.990;18.688;2024-03-17T12:30:57;101217.34;;;24.49;26.28
75298;BME280;63896;45.990;18.688;2024-03-17T12:34:01;101212.50;;;24.17;26.36
75298;BME280;63896;45.990;18.688;2024-03-17T12:37:04;101214.91;;;26.17;25.23
75298;BME280;63896;45.990;18.688;2024-03-17T12:40:18;101203.75;;;26.92;23.77
75298;BME280;63896;45.990;18.688;2024-03-17T12:43:20;101204.59;;;27.42;24.03
75298;BME280;63896;45.990;18.688;2024-03-17T12:46:22;101198.03;;;28.15;22.75
75298;BME280;63896;45.990;18.688;2024-03-17T12:49:24;101202.34;;;27.93;23.84
75298;BME280;63896;45.990;18.688;2024-03-17T12:52:31;101196.81;;;26.86;24.09
75298;BME280;63896;45.990;18.688;2024-03-17T12:55:33;101194.38;;;26.84;23.68
75298;BME280;63896;45.990;18.688;2024-03-17T12:58:54;101184.66;;;25.49;24.37
75298;BME280;63896;45.990;18.688;2024-03-17T13:02:14;101192.44;;;25.18;24.54
75298;BME280;63896;45.990;18.688;2024-03-17T13:05:20;101191.44;;;25.89;24.91
75298;BME280;63896;45.990;18.688;2024-03-17T13:08:25;101192.44;;;26.71;23.74
75298;BME280;63896;45.990;18.688;2024-03-17T13:11:27;101186.72;;;26.86;23.25
75298;BME280;63896;45.990;18.688;2024-03-17T13:14:30;101173.63;;;25.96;23.35
75298;BME280;63896;45.990;18.688;2024-03-17T13:17:32;101179.47;;;26.03;23.53
75298;BME280;63896;45.990;18.688;2024-03-17T13:20:35;101174.75;;;22.94;25.66
75298;BME280;63896;45.990;18.688;2024-03-17T13:23:37;101173.50;;;21.90;27.61
75298;BME280;63896;45.990;18.688;2024-03-17T13:26:39;101175.16;;;22.21;27.63
75298;BME280;63896;45.990;18.688;2024-03-17T13:29:40;101158.34;;;24.36;25.72
75298;BME280;63896;45.990;18.688;2024-03-17T13:32:45;101155.28;;;24.13;26.30
75298;BME280;63896;45.990;18.688;2024-03-17T13:35:47;101154.72;;;24.69;25.75
75298;BME280;63896;45.990;18.688;2024-03-17T13:38:52;101146.66;;;23.78;25.88
75298;BME280;63896;45.990;18.688;2024-03-17T13:41:54;101143.00;;;24.97;25.31
75298;BME280;63896;45.990;18.688;2024-03-17T13:44:59;101146.78;;;25.57;24.88
75298;BME280;63896;45.990;18.688;2024-03-17T13:48:02;101132.78;;;24.42;25.37
75298;BME280;63896;45.990;18.688;2024-03-17T13:51:08;101134.88;;;23.58;27.05
75298;BME280;63896;45.990;18.688;2024-03-17T13:54:10;101132.97;;;23.93;26.07
75298;BME280;63896;45.990;18.688;2024-03-17T13:57:12;101134.41;;;24.90;25.55
75298;BME280;63896;45.990;18.688;2024-03-17T14:00:14;101136.28;;;25.13;25.52
75298;BME280;63896;45.990;18.688;2024-03-17T14:03:17;101135.41;;;24.23;26.42
75298;BME280;63896;45.990;18.688;2024-03-17T14:06:19;101130.19;;;22.56;28.06
75298;BME280;63896;45.990;18.688;2024-03-17T14:09:21;101131.84;;;21.30;30.32
75298;BME280;63896;45.990;18.688;2024-03-17T14:12:24;101130.03;;;22.07;29.26
75298;BME280;63896;45.990;18.688;2024-03-17T14:15:27;101129.94;;;23.21;27.30
75298;BME280;63896;45.990;18.688;2024-03-17T14:18:31;101119.41;;;23.20;27.14
75298;BME280;63896;45.990;18.688;2024-03-17T14:21:34;101114.16;;;22.85;27.78
75298;BME280;63896;45.990;18.688;2024-03-17T14:24:36;101120.00;;;21.31;29.29
75298;BME280;63896;45.990;18.688;2024-03-17T14:27:38;101111.97;;;19.90;32.06
75298;BME280;63896;45.990;18.688;2024-03-17T14:30:40;101113.47;;;18.96;32.90
75298;BME280;63896;45.990;18.688;2024-03-17T14:33:42;101109.28;;;18.45;34.57
75298;BME280;63896;45.990;18.688;2024-03-17T14:36:43;101110.56;;;18.04;34.42
75298;BME280;63896;45.990;18.688;2024-03-17T14:39:46;101107.16;;;17.75;35.31
75298;BME280;63896;45.990;18.688;2024-03-17T14:42:49;101099.41;;;17.17;35.67
75298;BME280;63896;45.990;18.688;2024-03-17T14:45:51;101107.88;;;16.97;36.58
75298;BME280;63896;45.990;18.688;2024-03-17T14:48:53;101101.59;;;17.20;36.44
75298;BME280;63896;45.990;18.688;2024-03-17T14:51:55;101099.09;;;17.30;37.17
75298;BME280;63896;45.990;18.688;2024-03-17T14:54:58;101100.28;;;16.66;36.99
75298;BME280;63896;45.990;18.688;2024-03-17T14:58:00;101091.84;;;16.86;37.47
75298;BME280;63896;45.990;18.688;2024-03-17T15:01:04;101094.41;;;16.81;37.66
75298;BME280;63896;45.990;18.688;2024-03-17T15:04:06;101094.63;;;16.91;38.11
75298;BME280;63896;45.990;18.688;2024-03-17T15:07:08;101092.13;;;17.29;37.88
75298;BME280;63896;45.990;18.688;2024-03-17T15:10:11;101090.34;;;16.78;38.93
75298;BME280;63896;45.990;18.688;2024-03-17T15:13:16;101093.09;;;16.20;39.61
75298;BME280;63896;45.990;18.688;2024-03-17T15:16:18;101086.56;;;16.28;40.47
75298;BME280;63896;45.990;18.688;2024-03-17T15:19:20;101088.19;;;16.40;40.65
75298;BME280;63896;45.990;18.688;2024-03-17T15:22:22;101090.19;;;16.22;40.67
75298;BME280;63896;45.990;18.688;2024-03-17T15:25:24;101087.25;;;16.23;40.50
75298;BME280;63896;45.990;18.688;2024-03-17T15:28:26;101082.91;;;16.45;40.51
75298;BME280;63896;45.990;18.688;2024-03-17T15:31:28;101084.66;;;16.51;40.42
75298;BME280;63896;45.990;18.688;2024-03-17T15:34:30;101084.56;;;16.46;40.85
75298;BME280;63896;45.990;18.688;2024-03-17T15:37:34;101082.03;;;15.93;41.71
75298;BME280;63896;45.990;18.688;2024-03-17T15:40:37;101080.94;;;15.59;42.64
75298;BME280;63896;45.990;18.688;2024-03-17T15:43:42;101079.34;;;15.93;42.58
75298;BME280;63896;45.990;18.688;2024-03-17T15:46:45;101076.47;;;15.95;41.89
75298;BME280;63896;45.990;18.688;2024-03-17T15:49:47;101079.81;;;15.90;42.53
75298;BME280;63896;45.990;18.688;2024-03-17T15:52:48;101080.50;;;15.74;42.95